createdAt,value
2022-12-31T00:00:00.730Z,81.97
2022-12-31T00:05:10.346Z,81.96
2022-12-31T00:10:17.324Z,81.86
2022-12-31T00:15:24.887Z,81.87
2022-12-31T00:20:31.968Z,82.06
2022-12-31T00:25:39.151Z,81.87
2022-12-31T00:30:46.091Z,81.99
2022-12-31T00:35:53.023Z,82.00
2022-12-31T00:40:59.935Z,81.80
2022-12-31T00:46:08.409Z,81.62
2022-12-31T00:51:17.817Z,81.44
2022-12-31T00:56:27.095Z,81.39
2022-12-31T01:01:36.384Z,81.23
2022-12-31T01:06:44.367Z,80.95
2022-12-31T01:11:53.104Z,80.89
2022-12-31T01:17:00.568Z,80.94
2022-12-31T01:22:07.486Z,80.89
2022-12-31T01:27:14.338Z,80.60
2022-12-31T01:32:21.186Z,80.45
2022-12-31T01:37:29.016Z,80.33
2022-12-31T01:42:35.987Z,80.14
2022-12-31T01:47:47.729Z,79.94
2022-12-31T01:52:58.104Z,79.96
2022-12-31T01:58:09.571Z,79.84
2022-12-31T02:03:17.276Z,79.74
2022-12-31T02:08:24.328Z,79.61
2022-12-31T02:13:31.435Z,79.50
2022-12-31T02:18:45.053Z,79.64
2022-12-31T02:24:19.501Z,79.47
2022-12-31T02:30:00.142Z,79.55
2022-12-31T02:35:13.465Z,79.63
2022-12-31T02:40:23.273Z,79.39
2022-12-31T02:45:39.074Z,79.33
2022-12-31T02:50:59.429Z,79.34
2022-12-31T02:56:13.149Z,79.38
2022-12-31T03:01:50.403Z,79.30
2022-12-31T03:06:57.640Z,79.40
2022-12-31T03:12:24.292Z,79.43
2022-12-31T03:17:31.218Z,79.47
2022-12-31T03:22:41.701Z,79.60
2022-12-31T03:27:48.846Z,79.74
2022-12-31T03:32:57.614Z,79.64
2022-12-31T03:38:05.211Z,79.71
2022-12-31T03:43:12.744Z,79.73
2022-12-31T03:48:20.006Z,79.95
2022-12-31T03:53:27.509Z,79.77
2022-12-31T03:58:34.559Z,79.16
2022-12-31T04:03:41.515Z,78.62
2022-12-31T04:08:48.471Z,78.10
2022-12-31T04:13:55.252Z,78.09
2022-12-31T04:19:02.121Z,77.89
2022-12-31T04:24:10.252Z,77.97
2022-12-31T04:29:17.112Z,77.92
2022-12-31T04:34:24.069Z,78.27
2022-12-31T04:39:31.271Z,78.44
2022-12-31T04:44:38.101Z,78.63
2022-12-31T04:49:44.959Z,78.84
2022-12-31T04:54:52.035Z,79.09
2022-12-31T04:59:59.723Z,79.36
2022-12-31T05:05:07.387Z,79.45
2022-12-31T05:10:16.002Z,79.90
2022-12-31T05:15:22.943Z,79.98
2022-12-31T05:20:30.048Z,80.05
2022-12-31T05:25:37.067Z,80.23
2022-12-31T05:30:45.052Z,80.27
2022-12-31T05:35:52.330Z,80.14
2022-12-31T05:41:07.024Z,80.40
2022-12-31T05:46:13.994Z,80.27
2022-12-31T05:51:20.902Z,80.72
2022-12-31T05:56:27.778Z,80.82
2022-12-31T06:01:34.761Z,81.17
2022-12-31T06:06:41.755Z,81.34
2022-12-31T06:11:48.939Z,81.39
2022-12-31T06:16:55.875Z,81.44
2022-12-31T06:22:03.225Z,81.35
2022-12-31T06:27:11.024Z,81.38
2022-12-31T06:32:18.572Z,81.33
2022-12-31T06:37:25.478Z,81.02
2022-12-31T06:42:32.741Z,81.07
2022-12-31T06:47:39.711Z,81.21
2022-12-31T06:52:46.576Z,81.35
2022-12-31T06:57:54.469Z,81.24
2022-12-31T07:03:26.831Z,81.44
2022-12-31T07:08:43.753Z,81.79
2022-12-31T07:13:59.987Z,82.51
2022-12-31T07:19:16.479Z,82.89
2022-12-31T07:24:25.544Z,83.12
2022-12-31T07:29:49.527Z,83.05
2022-12-31T07:35:04.739Z,82.99
2022-12-31T07:40:19.655Z,82.81
2022-12-31T07:45:34.777Z,82.82
2022-12-31T07:50:42.611Z,82.69
2022-12-31T07:55:53.473Z,82.76
2022-12-31T08:01:01.157Z,82.54
2022-12-31T08:06:17.913Z,82.54
2022-12-31T08:11:36.249Z,82.37
2022-12-31T08:16:44.475Z,82.15
2022-12-31T08:22:05.765Z,82.09
2022-12-31T08:27:21.807Z,81.78
2022-12-31T08:32:35.209Z,81.66
2022-12-31T08:37:45.717Z,81.62
2022-12-31T08:43:08.460Z,81.48
2022-12-31T08:48:26.611Z,81.26
2022-12-31T08:53:35.053Z,81.09
2022-12-31T08:58:52.572Z,80.95
2022-12-31T09:04:12.568Z,80.98
2022-12-31T09:09:28.355Z,80.90
2022-12-31T09:14:48.288Z,80.49
2022-12-31T09:19:56.405Z,80.24
2022-12-31T09:25:03.937Z,79.75
2022-12-31T09:30:22.745Z,79.56
2022-12-31T09:35:35.951Z,79.45
2022-12-31T09:41:12.631Z,79.41
2022-12-31T09:47:07.551Z,79.29
2022-12-31T09:52:34.882Z,79.16
2022-12-31T09:57:54.939Z,78.89
2022-12-31T10:03:23.082Z,78.42
2022-12-31T10:08:48.023Z,77.78
2022-12-31T10:14:10.511Z,76.91
2022-12-31T10:19:41.296Z,76.20
2022-12-31T10:25:37.678Z,75.30
2022-12-31T10:31:05.610Z,74.89
2022-12-31T10:36:21.690Z,74.37
2022-12-31T10:41:54.659Z,74.15
2022-12-31T10:47:33.056Z,74.04
2022-12-31T10:53:18.337Z,73.35
2022-12-31T10:58:55.090Z,73.51
2022-12-31T11:04:31.557Z,73.13
2022-12-31T11:10:17.235Z,72.60
2022-12-31T11:15:53.401Z,72.66
2022-12-31T11:21:16.317Z,71.66
2022-12-31T11:26:41.057Z,72.01
2022-12-31T11:32:07.688Z,71.43
2022-12-31T11:37:30.151Z,71.03
2022-12-31T11:42:47.808Z,71.47
2022-12-31T11:48:29.752Z,71.72
2022-12-31T11:53:57.548Z,70.90
2022-12-31T11:59:18.894Z,71.14
2022-12-31T12:04:26.392Z,70.99
2022-12-31T12:09:35.616Z,70.80
2022-12-31T12:14:45.439Z,70.47
2022-12-31T12:19:58.445Z,70.58
2022-12-31T12:25:17.035Z,68.89
2022-12-31T12:30:26.919Z,68.62
2022-12-31T12:35:36.228Z,68.44
2022-12-31T12:40:53.316Z,68.75
2022-12-31T12:46:07.647Z,68.31
2022-12-31T12:51:26.869Z,67.79
2022-12-31T12:56:43.279Z,66.97
2022-12-31T13:01:57.622Z,67.75
2022-12-31T13:07:15.561Z,68.24
2022-12-31T13:12:37.839Z,68.06
2022-12-31T13:18:05.148Z,68.54
2022-12-31T13:23:20.767Z,68.32
2022-12-31T13:28:29.026Z,68.46
2022-12-31T13:33:38.843Z,68.56
2022-12-31T13:38:50.103Z,69.06
2022-12-31T13:44:04.392Z,69.03
2022-12-31T13:49:20.948Z,69.60
2022-12-31T13:54:39.922Z,69.38
2022-12-31T13:59:52.843Z,69.53
2022-12-31T14:05:06.079Z,69.51
2022-12-31T14:10:17.421Z,69.70
2022-12-31T14:15:30.116Z,69.77
2022-12-31T14:20:48.043Z,69.75
2022-12-31T14:26:00.873Z,69.83
2022-12-31T14:31:21.216Z,69.84
2022-12-31T14:36:41.865Z,69.74
2022-12-31T14:41:59.164Z,69.79
2022-12-31T14:47:23.028Z,69.77
2022-12-31T14:52:33.011Z,69.86
2022-12-31T14:58:17.249Z,69.90
2022-12-31T15:03:26.838Z,70.01
2022-12-31T15:08:50.422Z,70.09
2022-12-31T15:14:21.117Z,70.19
2022-12-31T15:25:36.972Z,70.34
2022-12-31T15:30:49.662Z,70.30
2022-12-31T15:35:58.775Z,70.06
2022-12-31T15:41:16.965Z,69.99
2022-12-31T15:46:27.465Z,70.15
2022-12-31T15:51:39.937Z,70.21
2022-12-31T15:56:49.476Z,70.22
2022-12-31T16:01:58.129Z,70.24
2022-12-31T16:07:05.833Z,70.54
2022-12-31T16:12:20.335Z,70.56
2022-12-31T16:17:31.668Z,70.48
2022-12-31T16:22:40.967Z,70.52
2022-12-31T16:27:49.547Z,70.49
2022-12-31T16:33:00.195Z,70.38
2022-12-31T16:38:15.400Z,70.35
2022-12-31T16:43:37.821Z,70.33
2022-12-31T16:48:48.436Z,70.41
2022-12-31T16:53:55.633Z,70.40
2022-12-31T16:59:05.870Z,70.21
2022-12-31T17:04:18.494Z,70.36
2022-12-31T17:09:38.136Z,70.49
2022-12-31T17:14:52.623Z,70.66
2022-12-31T17:20:02.216Z,70.30
2022-12-31T17:25:32.431Z,70.42
2022-12-31T17:30:44.529Z,70.38
2022-12-31T17:36:16.539Z,70.27
2022-12-31T17:41:31.208Z,70.22
2022-12-31T17:46:44.021Z,70.02
2022-12-31T17:51:50.943Z,69.90
2022-12-31T17:56:59.307Z,69.98
2022-12-31T18:02:14.054Z,69.81
2022-12-31T18:07:21.567Z,69.79
2022-12-31T18:12:28.877Z,69.90
2022-12-31T18:17:36.248Z,69.99
2022-12-31T18:28:17.574Z,69.64
2022-12-31T18:33:32.316Z,69.67
2022-12-31T18:38:40.613Z,69.52
2022-12-31T18:43:48.521Z,69.34
2022-12-31T18:48:55.445Z,69.41
2022-12-31T18:54:03.176Z,69.13
2022-12-31T18:59:10.767Z,69.15
2022-12-31T19:04:27.103Z,69.09
2022-12-31T19:09:56.301Z,68.98
2022-12-31T19:15:02.699Z,68.64
2022-12-31T19:20:10.829Z,68.56
2022-12-31T19:25:22.062Z,68.63
2022-12-31T19:30:32.315Z,68.51
2022-12-31T19:35:44.233Z,67.94
2022-12-31T19:40:57.237Z,68.02
2022-12-31T19:46:16.640Z,68.00
2022-12-31T19:51:24.562Z,67.69
2022-12-31T19:56:31.710Z,67.64
2022-12-31T20:01:39.580Z,67.59
2022-12-31T20:06:46.817Z,67.41
2022-12-31T20:11:54.070Z,67.28
2022-12-31T20:17:01.090Z,67.14
2022-12-31T20:22:08.829Z,67.28
2022-12-31T20:27:18.568Z,67.27
2022-12-31T20:32:25.917Z,67.34
2022-12-31T20:37:32.966Z,67.34
2022-12-31T20:42:40.861Z,67.43
2022-12-31T20:47:48.515Z,67.59
2022-12-31T20:52:56.741Z,67.49
2022-12-31T20:58:06.331Z,67.67
2022-12-31T21:03:36.841Z,67.52
2022-12-31T21:08:43.310Z,67.57
2022-12-31T21:13:57.535Z,67.44
2022-12-31T21:19:10.147Z,67.55
2022-12-31T21:24:23.771Z,67.24
2022-12-31T21:29:34.950Z,67.25
2022-12-31T21:34:43.884Z,67.23
2022-12-31T21:39:50.904Z,67.07
2022-12-31T21:45:06.377Z,67.31
2022-12-31T21:50:16.339Z,67.46
2022-12-31T21:55:44.519Z,67.89
2022-12-31T22:01:28.348Z,68.26
2022-12-31T22:06:39.845Z,68.44
2022-12-31T22:11:46.704Z,68.71
2022-12-31T22:16:53.678Z,68.87
2022-12-31T22:22:00.569Z,69.03
2022-12-31T22:27:28.816Z,69.03
2022-12-31T22:32:34.697Z,69.27
2022-12-31T22:38:01.595Z,69.43
2022-12-31T22:43:08.757Z,69.61
2022-12-31T22:48:15.665Z,70.16
2022-12-31T22:53:22.684Z,70.39
2022-12-31T22:58:29.637Z,70.50
2022-12-31T23:03:38.272Z,70.70
2022-12-31T23:09:05.869Z,70.95
2022-12-31T23:14:35.853Z,71.25
2022-12-31T23:20:01.476Z,71.40
2022-12-31T23:25:09.490Z,71.77
2022-12-31T23:30:16.835Z,72.05
2022-12-31T23:35:23.917Z,72.45
2022-12-31T23:40:35.395Z,72.61
2022-12-31T23:45:45.121Z,72.91
2022-12-31T23:50:54.137Z,72.96
2022-12-31T23:56:13.889Z,73.31
